createdAt,value
2022-09-15T02:37:28.967Z,34.77
2022-09-15T02:40:00.203Z,20.08
2022-09-15T02:42:28.970Z,18.55
2022-09-15T02:44:55.975Z,19.02
2022-09-15T02:47:25.656Z,16.95
2022-09-15T02:49:52.214Z,15.40
2022-09-15T02:52:20.347Z,15.02
2022-09-15T02:54:50.608Z,16.55
2022-09-15T02:57:17.847Z,17.55
2022-09-15T02:59:45.211Z,16.48
2022-09-15T03:02:12.449Z,12.00
2022-09-15T03:04:41.863Z,12.95
2022-09-15T03:07:09.516Z,14.40
2022-09-15T03:09:36.706Z,13.75
2022-09-15T03:12:09.377Z,12.07
2022-09-15T03:14:35.915Z,12.57
2022-09-15T03:17:02.717Z,14.65
2022-09-15T03:19:29.280Z,15.43
2022-09-15T03:21:55.927Z,12.63
2022-09-15T03:24:22.692Z,13.52
2022-09-15T03:26:51.138Z,14.43
2022-09-15T03:29:20.906Z,12.10
2022-09-15T03:31:48.541Z,14.10
2022-09-15T03:34:20.076Z,14.70
2022-09-15T03:36:46.657Z,14.60
2022-09-15T03:39:13.620Z,16.43
2022-09-15T03:41:40.563Z,15.70
2022-09-15T03:44:07.750Z,15.00
2022-09-15T03:46:38.603Z,14.18
2022-09-15T03:49:05.565Z,17.10
2022-09-15T03:51:36.060Z,12.17
2022-09-15T03:54:06.324Z,14.82
2022-09-15T03:56:34.744Z,14.27
2022-09-15T03:59:02.509Z,14.95
2022-09-15T04:01:31.038Z,16.65
2022-09-15T04:03:59.235Z,13.53
2022-09-15T04:06:26.579Z,16.80
2022-09-15T04:08:54.660Z,13.10
2022-09-15T04:11:25.182Z,16.83
2022-09-15T04:13:53.581Z,12.75
2022-09-15T04:16:22.752Z,14.90
2022-09-15T04:18:49.743Z,13.57
2022-09-15T04:21:21.779Z,14.82
2022-09-15T04:23:48.734Z,17.42
2022-09-15T04:26:21.459Z,12.55
2022-09-15T04:28:48.351Z,13.87
2022-09-15T04:31:16.800Z,13.68
2022-09-15T04:33:45.096Z,13.32
2022-09-15T04:36:13.614Z,16.40
2022-09-15T04:38:42.073Z,12.20
2022-09-15T04:41:18.910Z,11.20
2022-09-15T04:43:45.853Z,18.13
2022-09-15T04:46:12.993Z,16.50
2022-09-15T04:48:40.078Z,18.30
2022-09-15T04:51:08.890Z,15.57
2022-09-15T04:53:36.873Z,13.83
2022-09-15T04:56:07.073Z,13.30
2022-09-15T04:58:37.311Z,13.27
2022-09-15T05:01:08.227Z,13.02
2022-09-15T05:03:47.910Z,15.18
2022-09-15T05:06:17.610Z,12.03
2022-09-15T05:08:48.041Z,13.20
2022-09-15T05:11:16.700Z,15.70
2022-09-15T05:13:43.751Z,16.55
2022-09-15T05:16:12.560Z,15.50
2022-09-15T05:18:40.254Z,12.43
2022-09-15T05:21:08.805Z,15.68
2022-09-15T05:23:36.465Z,14.82
2022-09-15T05:26:05.555Z,15.68
2022-09-15T05:28:35.955Z,16.88
2022-09-15T05:31:07.115Z,16.03
2022-09-15T05:33:34.497Z,15.13
2022-09-15T05:36:01.760Z,16.98
2022-09-15T05:38:30.729Z,11.82
2022-09-15T05:41:02.436Z,13.70
2022-09-15T05:43:30.935Z,15.57
2022-09-15T05:46:01.527Z,12.68
2022-09-15T05:48:28.498Z,17.10
2022-09-15T05:50:58.565Z,15.35
2022-09-15T05:53:26.409Z,12.30
2022-09-15T05:55:54.907Z,16.37
2022-09-15T05:58:21.701Z,14.27
2022-09-15T06:00:48.248Z,14.25
2022-09-15T06:03:17.086Z,15.35
2022-09-15T06:05:43.646Z,13.80
2022-09-15T06:08:11.038Z,13.43
2022-09-15T06:10:41.006Z,19.15
2022-09-15T06:13:08.034Z,16.33
2022-09-15T06:15:34.617Z,18.25
2022-09-15T06:18:04.443Z,16.67
2022-09-15T06:20:32.934Z,19.33
2022-09-15T06:22:59.546Z,16.27
2022-09-15T06:25:26.109Z,17.02
2022-09-15T06:27:52.747Z,16.00
2022-09-15T06:30:19.462Z,13.20
2022-09-15T06:32:48.557Z,15.00
2022-09-15T06:35:15.424Z,14.65
2022-09-15T06:37:43.335Z,13.82
2022-09-15T06:40:11.153Z,16.63
2022-09-15T06:42:38.079Z,13.05
2022-09-15T06:45:05.207Z,13.90
2022-09-15T06:47:31.767Z,15.00
2022-09-15T06:49:58.460Z,16.05
2022-09-15T06:52:25.021Z,14.85
2022-09-15T06:54:54.040Z,15.10
2022-09-15T06:57:20.878Z,17.00
2022-09-15T06:59:47.525Z,15.82
2022-09-15T07:02:14.141Z,21.92
2022-09-15T07:04:40.858Z,14.38
2022-09-15T07:07:07.585Z,16.35
2022-09-15T07:09:34.214Z,19.90
2022-09-15T07:12:02.633Z,18.75
2022-09-15T07:14:29.561Z,15.05
2022-09-15T07:16:56.453Z,14.15
2022-09-15T07:19:23.068Z,17.42
2022-09-15T07:21:49.568Z,16.63
2022-09-15T07:24:16.652Z,16.58
2022-09-15T07:26:43.484Z,20.48
2022-09-15T07:29:11.363Z,21.92
2022-09-15T07:31:39.011Z,16.88
2022-09-15T07:34:06.598Z,21.77
2022-09-15T07:36:33.332Z,21.15
2022-09-15T07:39:00.102Z,23.27
2022-09-15T07:41:30.230Z,18.38
2022-09-15T07:43:59.042Z,15.65
2022-09-15T07:46:30.474Z,20.03
2022-09-15T07:48:57.226Z,19.15
2022-09-15T07:51:24.834Z,17.30
2022-09-15T07:53:52.439Z,15.63
2022-09-15T07:56:19.520Z,25.50
2022-09-15T07:58:48.341Z,18.07
2022-09-15T08:01:16.963Z,17.67
2022-09-15T08:03:46.644Z,20.33
2022-09-15T08:06:14.829Z,26.25
2022-09-15T08:08:42.396Z,27.70
2022-09-15T08:11:13.070Z,23.80
2022-09-15T08:13:42.060Z,24.05
2022-09-15T08:16:19.509Z,23.15
2022-09-15T08:18:48.226Z,23.70
2022-09-15T08:21:18.044Z,22.85
2022-09-15T08:23:44.738Z,25.23
2022-09-15T08:26:14.356Z,21.92
2022-09-15T08:28:42.250Z,26.48
2022-09-15T08:31:11.134Z,21.15
2022-09-15T08:33:43.197Z,21.23
2022-09-15T08:36:14.262Z,23.53
2022-09-15T08:38:42.631Z,23.08
2022-09-15T08:41:14.704Z,18.95
2022-09-15T08:43:46.403Z,17.33
2022-09-15T08:46:17.759Z,21.35
2022-09-15T08:48:49.963Z,17.70
2022-09-15T08:51:23.446Z,19.65
2022-09-15T08:53:55.920Z,18.10
2022-09-15T08:56:24.580Z,15.93
2022-09-15T08:58:51.228Z,14.85
2022-09-15T09:01:31.941Z,15.63
2022-09-15T09:04:22.378Z,11.65
2022-09-15T09:07:03.558Z,13.43
2022-09-15T09:09:39.439Z,15.68
2022-09-15T09:12:31.641Z,10.98
2022-09-15T09:15:11.575Z,14.73
2022-09-15T09:17:59.218Z,15.70
2022-09-15T09:20:42.312Z,11.93
2022-09-15T09:23:14.986Z,11.95
2022-09-15T09:25:42.443Z,12.23
2022-09-15T09:28:24.050Z,11.07
2022-09-15T09:30:50.970Z,8.45
2022-09-15T09:33:29.928Z,12.60
2022-09-15T09:36:00.464Z,11.23
2022-09-15T09:38:31.458Z,16.73
2022-09-15T09:41:02.129Z,8.30
2022-09-15T09:43:30.716Z,7.72
2022-09-15T09:45:57.561Z,9.98
2022-09-15T09:48:27.074Z,10.93
2022-09-15T09:50:55.505Z,9.80
2022-09-15T09:53:29.494Z,11.53
2022-09-15T09:56:15.909Z,4.97
2022-09-15T09:58:43.157Z,7.15
2022-09-15T10:01:11.693Z,7.20
2022-09-15T10:03:38.548Z,4.80
2022-09-15T10:06:07.427Z,4.57
2022-09-15T10:08:37.172Z,7.50
2022-09-15T10:11:05.860Z,13.10
2022-09-15T10:13:36.094Z,9.00
2022-09-15T10:16:06.536Z,10.15
2022-09-15T10:18:36.132Z,9.80
2022-09-15T10:21:05.706Z,8.50
2022-09-15T10:23:35.927Z,7.28
2022-09-15T10:26:22.513Z,7.35
2022-09-15T10:29:12.658Z,8.57
2022-09-15T10:31:40.508Z,11.97
2022-09-15T10:34:24.950Z,8.32
2022-09-15T10:36:53.902Z,7.50
2022-09-15T10:39:27.220Z,8.77
2022-09-15T10:42:03.846Z,3.33
2022-09-15T10:44:36.878Z,7.83
2022-09-15T10:47:14.352Z,4.97
2022-09-15T10:49:54.179Z,6.13
2022-09-15T10:52:31.798Z,7.72
2022-09-15T10:55:15.838Z,7.38
2022-09-15T10:57:56.996Z,11.20
2022-09-15T11:00:28.425Z,5.05
2022-09-15T11:03:12.861Z,3.97
2022-09-15T11:05:53.048Z,4.60
2022-09-15T11:08:42.357Z,8.07
2022-09-15T11:11:18.848Z,3.13
2022-09-15T11:14:00.026Z,2.42
2022-09-15T11:16:34.716Z,7.43
2022-09-15T11:19:13.032Z,4.90
2022-09-15T11:21:46.071Z,4.63
2022-09-15T11:24:34.995Z,3.70
2022-09-15T11:27:08.077Z,3.13
2022-09-15T11:29:52.524Z,5.78
2022-09-15T11:32:24.521Z,4.45
2022-09-15T11:34:55.797Z,5.10
2022-09-15T11:37:26.436Z,2.83
2022-09-15T11:39:58.813Z,4.15
2022-09-15T11:42:35.563Z,2.83
2022-09-15T11:45:03.154Z,2.72
2022-09-15T11:47:36.308Z,4.07
2022-09-15T11:50:14.348Z,5.27
2022-09-15T11:52:49.701Z,2.38
2022-09-15T11:55:25.166Z,3.53
2022-09-15T11:58:00.763Z,4.13
2022-09-15T12:00:27.600Z,3.95
2022-09-15T12:03:06.211Z,3.03
2022-09-15T12:05:39.308Z,4.22
2022-09-15T12:08:15.916Z,7.35
2022-09-15T12:10:46.553Z,4.13
2022-09-15T12:13:18.073Z,2.15
2022-09-15T12:15:46.313Z,5.03
2022-09-15T12:18:37.741Z,7.13
2022-09-15T12:21:15.331Z,4.13
2022-09-15T12:23:47.804Z,10.18
2022-09-15T12:26:17.897Z,5.15
2022-09-15T12:28:57.642Z,6.00
2022-09-15T12:31:30.485Z,6.25
2022-09-15T12:34:00.116Z,4.97
2022-09-15T12:36:48.120Z,4.05
2022-09-15T12:39:28.176Z,5.70
2022-09-15T12:41:57.488Z,3.30
2022-09-15T12:44:32.216Z,11.23
2022-09-15T12:47:00.784Z,5.30
2022-09-15T12:49:32.713Z,5.63
2022-09-15T12:52:03.269Z,6.38
2022-09-15T12:54:32.303Z,3.90
2022-09-15T12:57:00.282Z,3.67
2022-09-15T12:59:28.707Z,10.30
2022-09-15T13:01:56.322Z,4.85
2022-09-15T13:04:56.601Z,5.78
2022-09-15T13:07:35.678Z,5.53
2022-09-15T13:10:28.533Z,6.93
2022-09-15T13:13:10.047Z,6.50
2022-09-15T13:15:47.228Z,4.97
2022-09-15T13:18:18.450Z,5.63
2022-09-15T13:20:53.349Z,6.73
2022-09-15T13:23:22.842Z,5.32
2022-09-15T13:25:52.490Z,7.90
2022-09-15T13:28:20.444Z,6.45
2022-09-15T13:31:04.533Z,5.55
2022-09-15T13:39:58.494Z,4.40
2022-09-15T13:42:39.852Z,6.95
2022-09-15T13:45:35.890Z,3.15
2022-09-15T13:48:21.945Z,5.87
2022-09-15T13:50:56.313Z,6.40
2022-09-15T13:53:50.170Z,4.18
2022-09-15T13:56:24.328Z,4.50
2022-09-15T13:59:03.415Z,5.00
2022-09-15T14:01:39.575Z,4.77
2022-09-15T14:04:15.781Z,6.93
2022-09-15T14:06:44.769Z,5.22
2022-09-15T14:09:15.184Z,3.50
2022-09-15T14:11:46.600Z,4.25
2022-09-15T14:14:39.832Z,6.80
2022-09-15T14:17:21.816Z,3.28
2022-09-15T14:19:51.372Z,4.45
2022-09-15T14:22:27.429Z,4.90
2022-09-15T14:24:55.678Z,5.97
2022-09-15T14:27:26.417Z,2.70
2022-09-15T14:29:54.717Z,4.95
2022-09-15T14:32:22.228Z,4.50
2022-09-15T14:34:55.998Z,5.53
2022-09-15T14:37:26.785Z,3.22
2022-09-15T14:39:56.706Z,5.53
2022-09-15T14:42:25.710Z,2.97
2022-09-15T14:47:44.304Z,6.03
2022-09-15T14:50:16.293Z,3.75
2022-09-15T14:52:46.300Z,2.60
2022-09-15T14:55:16.819Z,6.20
2022-09-15T14:57:52.893Z,3.72
2022-09-15T15:00:25.593Z,4.82
2022-09-15T15:03:06.187Z,3.83
2022-09-15T15:05:43.978Z,2.57
2022-09-15T15:08:19.913Z,2.50
2022-09-15T15:10:46.651Z,4.60
2022-09-15T15:13:16.308Z,3.95
2022-09-15T15:15:44.006Z,4.28
2022-09-15T15:18:49.137Z,4.43
2022-09-15T15:21:41.939Z,3.25
2022-09-15T15:24:16.942Z,2.30
2022-09-15T15:26:45.290Z,3.92
2022-09-15T15:29:40.489Z,2.42
2022-09-15T15:32:12.198Z,2.80
2022-09-15T15:34:39.350Z,3.13
2022-09-15T15:37:22.341Z,3.95
2022-09-15T15:39:52.516Z,6.80
2022-09-15T15:42:20.254Z,2.33
2022-09-15T15:45:01.565Z,3.77
2022-09-15T15:47:30.884Z,5.25
2022-09-15T15:50:16.564Z,2.55
2022-09-15T15:52:44.548Z,2.72
2022-09-15T15:55:14.497Z,5.07
2022-09-15T15:57:41.255Z,3.37
2022-09-15T16:00:21.087Z,3.80
2022-09-15T16:02:49.315Z,5.07
2022-09-15T16:05:15.928Z,5.65
2022-09-15T16:07:46.993Z,3.75
2022-09-15T16:10:16.310Z,5.43
2022-09-15T16:12:42.913Z,2.55
2022-09-15T16:15:12.317Z,3.53
2022-09-15T16:17:43.065Z,2.90
2022-09-15T16:20:14.639Z,3.80
2022-09-15T16:22:41.622Z,3.87
2022-09-15T16:25:16.526Z,7.28
2022-09-15T16:27:43.736Z,2.47
2022-09-15T16:30:11.018Z,2.70
2022-09-15T16:32:38.139Z,4.63
2022-09-15T16:35:16.180Z,2.27
2022-09-15T16:37:42.801Z,6.60
2022-09-15T16:40:12.101Z,5.40
2022-09-15T16:43:02.990Z,3.28
2022-09-15T16:45:36.472Z,2.90
2022-09-15T16:48:08.166Z,2.97
2022-09-15T16:50:42.650Z,3.17
2022-09-15T16:53:13.722Z,8.30
2022-09-15T16:55:57.185Z,2.58
2022-09-15T16:58:33.512Z,2.83
2022-09-15T17:01:06.126Z,3.17
2022-09-15T17:03:37.546Z,1.60
2022-09-15T17:06:05.634Z,6.78
2022-09-15T17:08:33.360Z,2.28
2022-09-15T17:13:55.332Z,2.40
2022-09-15T17:16:22.119Z,6.55
2022-09-15T17:18:48.952Z,4.13
2022-09-15T17:21:17.561Z,2.65
2022-09-15T17:23:45.790Z,5.68
2022-09-15T17:26:17.411Z,2.23
2022-09-15T17:28:44.345Z,3.13
2022-09-15T17:31:15.822Z,2.42
2022-09-15T17:33:43.768Z,2.80
2022-09-15T17:36:10.704Z,1.20
2022-09-15T17:38:38.093Z,2.27
2022-09-15T17:41:05.312Z,2.08
2022-09-15T17:43:32.101Z,4.15
2022-09-15T17:46:01.443Z,3.60
2022-09-15T17:48:43.946Z,1.77
2022-09-15T17:51:16.647Z,5.20
2022-09-15T17:53:47.165Z,2.67
2022-09-15T17:56:16.598Z,1.73
2022-09-15T17:58:45.360Z,4.55
2022-09-15T18:01:19.069Z,5.65
2022-09-15T18:03:47.369Z,6.03
2022-09-15T18:06:16.140Z,3.53
2022-09-15T18:08:43.080Z,6.50
2022-09-15T18:11:14.986Z,3.65
2022-09-15T18:13:41.888Z,3.40
2022-09-15T18:16:16.719Z,3.57
2022-09-15T18:18:47.891Z,8.45
2022-09-15T18:21:23.555Z,4.30
2022-09-15T18:23:52.139Z,3.50
2022-09-15T18:26:26.265Z,2.85
2022-09-15T18:28:53.734Z,3.63
2022-09-15T18:31:23.467Z,2.67
2022-09-15T18:33:52.314Z,5.60
2022-09-15T18:36:22.350Z,3.35
2022-09-15T18:38:52.448Z,3.70
2022-09-15T18:41:19.356Z,4.87
2022-09-15T18:43:46.088Z,4.05
2022-09-15T18:46:13.738Z,4.90
2022-09-15T18:48:40.625Z,3.03
2022-09-15T18:51:13.826Z,4.93
2022-09-15T18:53:49.747Z,6.43
2022-09-15T18:56:19.162Z,7.68
2022-09-15T18:58:45.829Z,18.30
2022-09-15T19:01:12.565Z,8.48
2022-09-15T19:03:44.096Z,11.35
2022-09-15T19:06:13.151Z,3.70
2022-09-15T19:08:39.800Z,2.45
2022-09-15T19:11:07.313Z,3.05
2022-09-15T19:13:33.954Z,3.72
2022-09-15T19:16:02.888Z,6.15
2022-09-15T19:18:29.713Z,4.60
2022-09-15T19:21:04.802Z,3.00
2022-09-15T19:23:33.289Z,3.95
2022-09-15T19:26:02.311Z,2.40
2022-09-15T19:28:31.924Z,2.50
2022-09-15T19:30:58.989Z,2.63
2022-09-15T19:33:25.791Z,1.48
2022-09-15T19:36:04.942Z,7.30
2022-09-15T19:38:44.366Z,4.47
2022-09-15T19:41:13.722Z,4.30
2022-09-15T19:43:42.419Z,4.43
2022-09-15T19:46:13.755Z,3.33
2022-09-15T19:48:42.792Z,2.33
2022-09-15T19:51:16.695Z,3.95
2022-09-15T19:53:45.926Z,1.73
2022-09-15T19:56:39.484Z,1.87
2022-09-15T19:59:12.943Z,6.05
2022-09-15T20:01:40.334Z,6.22
2022-09-15T20:04:10.224Z,3.25
2022-09-15T20:06:37.345Z,7.63
2022-09-15T20:09:09.769Z,4.10
2022-09-15T20:11:38.154Z,3.72
2022-09-15T20:14:09.057Z,3.50
2022-09-15T20:16:39.111Z,3.30
2022-09-15T20:19:11.453Z,4.28
2022-09-15T20:21:51.402Z,4.93
2022-09-15T20:24:25.420Z,3.22
2022-09-15T20:27:12.990Z,2.75
2022-09-15T20:29:48.516Z,3.22
2022-09-15T20:32:30.289Z,3.78
2022-09-15T20:35:06.258Z,3.13
2022-09-15T20:37:37.665Z,3.88
2022-09-15T20:40:07.140Z,1.70
2022-09-15T20:42:41.114Z,3.90
2022-09-15T20:45:10.367Z,5.45
2022-09-15T20:47:50.239Z,2.80
2022-09-15T20:50:18.370Z,1.20
2022-09-15T20:52:45.369Z,3.58
2022-09-15T20:55:14.894Z,2.13
2022-09-15T20:57:53.301Z,2.45
2022-09-15T21:00:57.222Z,1.93
2022-09-15T21:03:23.953Z,2.60
2022-09-15T21:05:59.144Z,5.32
2022-09-15T21:08:28.509Z,3.10
2022-09-15T21:10:56.615Z,4.88
2022-09-15T21:13:23.629Z,2.47
2022-09-15T21:18:43.239Z,5.75
2022-09-15T21:21:26.284Z,2.35
2022-09-15T21:24:01.948Z,5.90
2022-09-15T21:26:34.923Z,4.93
2022-09-15T21:29:11.511Z,1.10
2022-09-15T21:31:48.333Z,2.53
2022-09-15T21:34:19.168Z,7.00
2022-09-15T21:37:00.269Z,2.47
2022-09-15T21:39:38.838Z,6.67
2022-09-15T21:42:14.691Z,4.05
2022-09-15T21:44:48.103Z,5.80
2022-09-15T21:47:16.916Z,2.33
2022-09-15T21:49:43.813Z,3.83
2022-09-15T21:52:12.448Z,3.57
2022-09-15T21:54:39.437Z,4.15
2022-09-15T21:57:07.967Z,7.43
2022-09-15T21:59:39.300Z,5.28
2022-09-15T22:02:06.376Z,2.42
2022-09-15T22:04:36.606Z,2.17
2022-09-15T22:07:09.510Z,2.30
2022-09-15T22:09:36.424Z,5.53
2022-09-15T22:12:03.468Z,3.28
2022-09-15T22:14:32.952Z,3.95
2022-09-15T22:17:01.566Z,6.93
2022-09-15T22:19:37.118Z,1.27
2022-09-15T22:22:04.102Z,3.28
2022-09-15T22:24:37.853Z,3.83
2022-09-15T22:27:20.492Z,2.28
2022-09-15T22:29:59.351Z,2.80
2022-09-15T22:32:29.473Z,5.30
2022-09-15T22:35:00.408Z,3.05
2022-09-15T22:37:42.525Z,5.32
2022-09-15T22:40:26.058Z,2.72
2022-09-15T22:42:57.682Z,2.83
2022-09-15T22:45:41.899Z,2.05
2022-09-15T22:48:14.099Z,5.65
2022-09-15T22:50:49.147Z,4.38
2022-09-15T22:53:17.859Z,5.00
2022-09-15T22:55:46.305Z,7.50
2022-09-15T22:58:17.443Z,4.50
2022-09-15T23:00:52.112Z,4.60
2022-09-15T23:03:21.734Z,3.15
2022-09-15T23:05:58.453Z,2.05
2022-09-15T23:08:29.926Z,4.37
2022-09-15T23:11:07.919Z,3.47
2022-09-15T23:13:35.153Z,2.72
2022-09-15T23:16:05.585Z,3.38
2022-09-15T23:18:49.243Z,3.42
2022-09-15T23:21:21.707Z,3.53
2022-09-15T23:23:51.392Z,3.97
2022-09-15T23:26:40.200Z,4.53
2022-09-15T23:29:07.071Z,2.90
2022-09-15T23:31:35.810Z,4.57
2022-09-15T23:34:05.970Z,2.20
2022-09-15T23:36:34.665Z,3.47
2022-09-15T23:39:07.261Z,1.75
2022-09-15T23:41:48.735Z,2.05
2022-09-15T23:44:26.616Z,2.30
2022-09-15T23:46:58.672Z,2.13
2022-09-15T23:49:47.757Z,3.63
2022-09-15T23:52:14.900Z,3.67
2022-09-15T23:54:46.959Z,2.53
2022-09-15T23:57:15.325Z,3.65
2022-09-15T23:59:44.928Z,2.87
